Time;durP1;ratioP1;P1;durP2;ratioP2;P2;SDS_P1;SDS_P2;PMS_P1;PMS_P2;Temp;Humidity;BMP_temperature;BMP_pressure;BME280_temperature;BME280_humidity;BME280_pressure;Samples;Min_cycle;Max_cycle;Signal;HPM_P1;HPM_P2
2022/12/24 00:00:59;;;;;;;48.13;21.25;;;5.20;95.10;;;;;;5032369;28;20017;-63
2022/12/24 00:03:26;;;;;;;47.13;21.38;;;5.20;95.20;;;;;;5048619;28;20132;-63
2022/12/24 00:05:53;;;;;;;46.88;21.35;;;5.20;95.20;;;;;;5049971;28;20132;-63
2022/12/24 00:08:23;;;;;;;44.47;21.50;;;5.20;95.10;;;;;;5035226;28;20029;-64
2022/12/24 00:10:53;;;;;;;47.92;22.63;;;5.20;95.20;;;;;;5035561;28;20084;-64
2022/12/24 00:13:22;;;;;;;42.80;19.70;;;5.20;95.20;;;;;;5038552;28;20115;-64
2022/12/24 00:15:52;;;;;;;;;;;5.20;95.20;;;;;;5056948;28;20033;-64
2022/12/24 00:18:19;;;;;;;47.63;20.40;;;5.20;95.20;;;;;;5042373;28;19909;-64
2022/12/24 00:20:47;;;;;;;48.95;22.20;;;5.20;95.20;;;;;;5035087;28;20026;-64
2022/12/24 00:23:17;;;;;;;47.03;22.25;;;5.20;95.20;;;;;;5047024;28;20040;-64
2022/12/24 00:25:45;;;;;;;53.33;23.35;;;5.20;95.20;;;;;;5054873;28;20388;-64
2022/12/24 00:28:13;;;;;;;45.00;21.75;;;5.20;95.20;;;;;;5055850;28;20025;-64
2022/12/24 00:30:41;;;;;;;44.33;21.55;;;5.20;95.20;;;;;;5047497;28;20026;-64
2022/12/24 00:33:08;;;;;;;41.85;21.10;;;5.20;95.30;;;;;;5034333;28;20465;-64
2022/12/24 00:35:39;;;;;;;45.50;21.75;;;5.20;95.30;;;;;;5035615;28;20033;-64
2022/12/24 00:38:07;;;;;;;44.10;22.60;;;5.20;95.20;;;;;;5049834;28;20021;-64
2022/12/24 00:40:34;;;;;;;42.80;21.98;;;5.20;95.20;;;;;;5055570;28;20043;-64
2022/12/24 00:43:04;;;;;;;43.97;21.67;;;5.20;95.20;;;;;;5015337;28;20422;-64
2022/12/24 00:45:31;;;;;;;57.85;23.30;;;5.20;95.10;;;;;;5024011;28;20417;-64
2022/12/24 00:47:57;;;;;;;44.90;21.77;;;5.10;95.20;;;;;;5038658;28;20141;-64
2022/12/24 00:50:24;;;;;;;52.10;21.90;;;5.10;95.20;;;;;;5034504;28;20033;-63
2022/12/24 00:52:53;;;;;;;44.30;20.90;;;5.20;95.30;;;;;;5033860;28;20116;-63
2022/12/24 00:55:20;;;;;;;41.65;20.00;;;5.20;95.20;;;;;;5037086;28;20025;-63
2022/12/24 00:57:45;;;;;;;43.10;21.20;;;5.20;95.20;;;;;;5054461;28;20108;-63
2022/12/24 01:00:14;;;;;;;42.88;22.13;;;5.20;95.30;;;;;;5051265;28;20037;-63
2022/12/24 01:02:41;;;;;;;44.20;21.73;;;5.20;95.20;;;;;;5031914;28;20133;-63
2022/12/24 01:05:10;;;;;;;45.05;22.27;;;5.20;95.30;;;;;;5017535;28;20044;-63
2022/12/24 01:07:43;;;;;;;43.53;21.25;;;5.10;95.20;;;;;;5033294;28;20033;-63
2022/12/24 01:10:11;;;;;;;47.70;23.10;;;5.20;95.20;;;;;;5035412;28;20447;-63
2022/12/24 01:12:38;;;;;;;46.60;24.00;;;5.20;95.20;;;;;;5035118;28;20437;-63
2022/12/24 01:15:10;;;;;;;41.90;20.92;;;5.20;95.20;;;;;;5034331;28;20021;-63
2022/12/24 01:17:39;;;;;;;48.03;23.42;;;5.20;95.30;;;;;;5053248;28;20082;-63
2022/12/24 01:20:10;;;;;;;49.03;23.08;;;5.20;95.30;;;;;;5032607;28;20107;-63
2022/12/24 01:22:36;;;;;;;40.63;22.13;;;5.20;95.30;;;;;;5038820;28;20350;-63
2022/12/24 01:25:04;;;;;;;48.67;21.20;;;5.20;95.20;;;;;;5032320;28;20371;-63
2022/12/24 01:27:33;;;;;;;43.60;21.45;;;5.20;95.20;;;;;;5029464;28;20029;-63
2022/12/24 01:30:00;;;;;;;43.75;21.17;;;5.20;95.20;;;;;;5031103;28;20072;-63
2022/12/24 01:32:26;;;;;;;50.47;22.00;;;5.20;95.20;;;;;;5016548;28;20095;-64
2022/12/24 01:34:56;;;;;;;42.50;21.13;;;5.20;95.30;;;;;;5014895;28;20032;-64
2022/12/24 01:37:25;;;;;;;44.60;23.00;;;5.20;95.30;;;;;;5025828;28;20034;-64
2022/12/24 01:43:22;;;;;;;45.40;22.52;;;5.20;95.20;;;;;;5033543;28;20045;-63
2022/12/24 01:45:42;;;;;;;45.38;22.35;;;5.20;95.20;;;;;;5034474;28;20440;-64
2022/12/24 01:48:44;;;;;;;46.72;23.83;;;5.10;95.20;;;;;;5051799;28;20037;-64
2022/12/24 01:51:27;;;;;;;46.20;22.77;;;5.20;95.20;;;;;;5054578;28;20025;-64
2022/12/24 01:54:32;;;;;;;51.80;23.45;;;5.20;95.30;;;;;;5054247;28;20366;-64
2022/12/24 01:57:06;;;;;;;42.35;22.40;;;5.10;95.20;;;;;;5014823;28;20466;-63
2022/12/24 01:59:35;;;;;;;42.90;21.27;;;5.20;95.20;;;;;;5029326;28;20745;-63
2022/12/24 02:02:04;;;;;;;48.67;23.30;;;5.10;95.20;;;;;;5033282;28;20140;-63
2022/12/24 02:04:38;;;;;;;41.30;20.67;;;5.10;95.20;;;;;;5033189;28;20120;-63
2022/12/24 02:07:05;;;;;;;43.97;21.95;;;5.20;95.30;;;;;;5033929;28;20041;-63
2022/12/24 02:09:34;;;;;;;51.72;25.58;;;5.20;95.30;;;;;;5028310;28;20344;-64
2022/12/24 02:12:03;;;;;;;38.85;20.58;;;5.20;95.30;;;;;;5033357;28;20032;-64
2022/12/24 02:14:31;;;;;;;45.77;21.97;;;5.10;95.20;;;;;;5033770;28;20061;-64
2022/12/24 02:17:17;;;;;;;46.38;21.90;;;5.10;95.30;;;;;;5040566;28;20276;-64
2022/12/24 02:20:01;;;;;;;49.75;23.05;;;5.20;95.30;;;;;;5053646;28;20350;-64
2022/12/24 02:22:57;;;;;;;41.10;20.58;;;5.10;95.30;;;;;;5048966;28;20517;-64
2022/12/24 02:26:12;;;;;;;43.97;22.95;;;5.20;95.30;;;;;;5029094;28;20068;-63
2022/12/24 02:29:09;;;;;;;42.28;21.90;;;5.10;95.20;;;;;;5011920;28;20030;-63
2022/12/24 02:31:52;;;;;;;45.78;22.13;;;5.10;95.30;;;;;;5027379;28;20032;-63
2022/12/24 02:34:41;;;;;;;53.13;23.23;;;5.10;95.30;;;;;;5019600;28;20026;-63
2022/12/24 02:37:25;;;;;;;37.92;20.50;;;5.10;95.30;;;;;;5020602;28;20183;-63
2022/12/24 02:40:11;;;;;;;44.92;22.90;;;5.20;95.30;;;;;;5028356;28;20064;-63
2022/12/24 02:42:41;;;;;;;42.38;21.52;;;5.10;95.30;;;;;;5036512;28;20550;-63
2022/12/24 02:45:30;;;;;;;40.40;22.23;;;5.10;95.30;;;;;;5037573;28;20037;-63
2022/12/24 02:47:58;;;;;;;42.77;20.60;;;5.10;95.30;;;;;;5033491;28;20373;-63
2022/12/24 02:50:28;;;;;;;35.40;20.55;;;5.10;95.20;;;;;;5033012;28;20677;-63
2022/12/24 02:52:54;;;;;;;43.35;21.80;;;5.10;95.30;;;;;;5032648;28;20029;-64
2022/12/24 02:55:48;;;;;;;37.90;20.65;;;5.00;95.20;;;;;;5033084;28;20040;-64
2022/12/24 02:58:45;;;;;;;39.47;20.90;;;5.00;95.30;;;;;;5032369;28;20048;-64
2022/12/24 03:01:34;;;;;;;39.92;21.60;;;5.00;95.20;;;;;;5035766;28;20075;-63
2022/12/24 03:04:38;;;;;;;41.53;22.50;;;5.00;95.20;;;;;;5053126;28;20040;-63
2022/12/24 03:07:26;;;;;;;36.90;19.48;;;5.00;95.30;;;;;;5036949;28;20027;-63
2022/12/24 03:10:25;;;;;;;37.53;20.33;;;5.00;95.30;;;;;;5035814;28;20458;-62
2022/12/24 03:12:59;;;;;;;34.15;19.40;;;5.00;95.30;;;;;;5016529;28;20041;-61
2022/12/24 03:15:28;;;;;;;38.20;20.48;;;5.00;95.30;;;;;;5021796;28;20029;-61
2022/12/24 03:17:59;;;;;;;44.00;21.73;;;5.10;95.30;;;;;;5032714;28;20334;-61
2022/12/24 03:20:33;;;;;;;37.67;20.00;;;5.10;95.30;;;;;;5036730;28;20390;-61
2022/12/24 03:23:04;;;;;;;37.33;21.73;;;5.00;95.30;;;;;;5017713;28;20030;-62
2022/12/24 03:25:33;;;;;;;37.13;20.23;;;5.00;95.30;;;;;;5030319;28;20025;-62
2022/12/24 03:28:03;;;;;;;36.13;20.10;;;5.00;95.30;;;;;;5035677;28;20029;-63
2022/12/24 03:30:30;;;;;;;37.25;20.70;;;5.00;95.30;;;;;;5024008;28;20058;-63
2022/12/24 03:33:00;;;;;;;35.28;19.60;;;5.00;95.30;;;;;;5012378;28;20037;-63
2022/12/24 03:35:29;;;;;;;35.67;19.23;;;5.00;95.20;;;;;;5032669;28;20040;-63
2022/12/24 03:37:56;;;;;;;35.28;20.65;;;5.00;95.30;;;;;;5037375;28;20083;-62
2022/12/24 03:40:23;;;;;;;32.67;19.35;;;5.00;95.20;;;;;;5032458;28;20435;-62
2022/12/24 03:42:50;;;;;;;30.83;17.52;;;5.00;95.30;;;;;;5032505;28;20034;-62
2022/12/24 03:45:17;;;;;;;32.85;18.77;;;5.00;95.30;;;;;;5040730;28;20079;-62
2022/12/24 03:47:45;;;;;;;31.35;19.67;;;5.00;95.30;;;;;;5051608;28;20040;-61
2022/12/24 03:50:12;;;;;;;28.58;18.92;;;4.90;95.20;;;;;;5036219;28;20116;-61
2022/12/24 03:52:38;;;;;;;30.58;18.38;;;4.90;95.30;;;;;;5032380;28;20041;-61
2022/12/24 03:55:08;;;;;;;33.70;19.52;;;4.90;95.20;;;;;;5031508;28;20017;-62
2022/12/24 03:57:35;;;;;;;31.73;18.13;;;4.90;95.20;;;;;;5038054;28;20342;-61
2022/12/24 04:00:04;;;;;;;28.17;18.27;;;4.90;95.30;;;;;;5032530;28;20443;-61
2022/12/24 04:02:31;;;;;;;34.08;19.58;;;4.90;95.30;;;;;;5031883;28;20053;-61
2022/12/24 04:04:58;;;;;;;33.55;18.75;;;5.00;95.30;;;;;;5045248;28;20063;-61
2022/12/24 04:07:23;;;;;;;32.75;19.08;;;4.90;95.20;;;;;;5052384;28;20040;-62
2022/12/24 04:09:50;;;;;;;31.45;20.02;;;4.90;95.20;;;;;;5033342;28;20029;-63
2022/12/24 04:12:20;;;;;;;31.08;19.27;;;4.90;95.20;;;;;;5031262;28;20123;-63
2022/12/24 04:14:46;;;;;;;36.05;19.13;;;4.90;95.20;;;;;;5030675;28;20029;-62
2022/12/24 04:17:13;;;;;;;34.80;18.67;;;4.90;95.10;;;;;;5043497;28;20375;-62
2022/12/24 04:19:40;;;;;;;31.83;18.15;;;4.90;95.30;;;;;;5019407;28;20605;-62
2022/12/24 04:22:07;;;;;;;30.40;19.08;;;4.90;95.20;;;;;;5031306;28;20172;-62
2022/12/24 04:24:33;;;;;;;29.08;18.08;;;4.90;95.20;;;;;;5027997;28;20072;-62
2022/12/24 04:26:59;;;;;;;34.78;18.58;;;4.80;95.10;;;;;;5012183;28;20364;-61
2022/12/24 04:29:26;;;;;;;32.30;18.98;;;4.80;95.20;;;;;;5027890;28;20034;-61
2022/12/24 04:31:53;;;;;;;29.52;18.20;;;4.80;95.10;;;;;;5031020;28;20381;-61
2022/12/24 04:34:20;;;;;;;32.50;17.80;;;4.80;95.20;;;;;;5030997;28;20026;-61
2022/12/24 04:36:46;;;;;;;34.90;19.25;;;4.80;95.10;;;;;;5043727;28;20029;-61
2022/12/24 04:39:15;;;;;;;30.60;19.20;;;4.80;95.20;;;;;;5020870;28;20021;-61
2022/12/24 04:41:41;;;;;;;32.35;17.95;;;4.80;95.20;;;;;;5018022;28;20026;-61
2022/12/24 04:44:09;;;;;;;31.50;18.38;;;4.80;95.20;;;;;;5031845;28;20033;-61
2022/12/24 04:46:36;;;;;;;31.58;18.92;;;4.80;95.10;;;;;;5023156;28;20080;-61
2022/12/24 04:49:03;;;;;;;31.08;18.90;;;4.70;95.10;;;;;;5020694;28;20438;-60
2022/12/24 04:51:31;;;;;;;29.70;18.42;;;4.80;95.10;;;;;;5034453;28;20033;-59
2022/12/24 04:53:59;;;;;;;26.73;17.08;;;4.70;95.10;;;;;;5035434;28;20026;-58
2022/12/24 04:56:31;;;;;;;29.63;19.13;;;4.80;95.20;;;;;;5035426;28;20026;-59
2022/12/24 04:58:58;;;;;;;30.80;18.60;;;4.80;95.20;;;;;;5035368;28;20506;-59
2022/12/24 05:01:28;;;;;;;27.90;17.17;;;4.80;95.30;;;;;;5035312;28;20033;-58
2022/12/24 05:03:55;;;;;;;30.52;17.77;;;4.90;95.30;;;;;;5042855;28;20056;-57
2022/12/24 05:06:27;;;;;;;29.15;17.58;;;4.90;95.20;;;;;;5049571;28;20521;-58
2022/12/24 05:08:57;;;;;;;27.58;17.05;;;4.90;95.30;;;;;;5034416;28;20030;-55
2022/12/24 05:11:24;;;;;;;30.33;17.92;;;4.90;95.20;;;;;;5032285;28;20354;-57
2022/12/24 05:13:51;;;;;;;27.58;18.13;;;4.80;95.20;;;;;;5034076;28;20032;-56
2022/12/24 05:16:22;;;;;;;30.67;18.25;;;4.80;95.30;;;;;;5022320;28;20116;-58
2022/12/24 05:18:48;;;;;;;27.60;15.95;;;4.90;95.20;;;;;;5026508;28;20431;-58
2022/12/24 05:21:20;;;;;;;27.33;15.90;;;4.90;95.30;;;;;;5017110;28;20116;-59
2022/12/24 05:26:38;;;;;;;25.50;16.95;;;4.90;95.30;;;;;;5021869;28;20049;-59
2022/12/24 05:29:08;;;;;;;27.70;16.77;;;4.90;95.30;;;;;;5023652;28;20119;-60
2022/12/24 05:31:35;;;;;;;29.50;17.08;;;4.90;95.20;;;;;;5014989;28;20030;-60
2022/12/24 05:34:02;;;;;;;27.58;16.92;;;4.90;95.20;;;;;;5025588;28;20205;-60
2022/12/24 05:36:31;;;;;;;34.90;17.90;;;4.80;95.20;;;;;;5048754;28;20033;-60
2022/12/24 05:38:58;;;;;;;28.73;17.42;;;4.90;95.20;;;;;;5028219;28;20383;-59
2022/12/24 05:41:27;;;;;;;29.10;17.42;;;4.90;95.30;;;;;;5028051;28;20034;-58
2022/12/24 05:43:54;;;;;;;28.50;15.43;;;4.90;95.30;;;;;;5026266;28;20140;-60
2022/12/24 05:46:26;;;;;;;28.10;16.52;;;4.90;95.30;;;;;;5024449;28;20583;-60
2022/12/24 05:48:53;;;;;;;27.98;18.02;;;4.90;95.30;;;;;;5023430;28;20083;-60
2022/12/24 05:51:21;;;;;;;29.80;18.15;;;5.00;95.30;;;;;;5022366;28;20018;-60
2022/12/24 05:53:50;;;;;;;28.38;18.13;;;5.00;95.30;;;;;;5026817;28;20491;-60
2022/12/24 05:56:22;;;;;;;28.52;17.65;;;4.90;95.20;;;;;;5032839;28;20018;-59
2022/12/24 05:58:51;;;;;;;26.15;16.20;;;4.90;95.30;;;;;;5034121;28;20458;-60
2022/12/24 06:01:19;;;;;;;26.67;16.27;;;4.90;95.30;;;;;;5044719;28;20021;-60
2022/12/24 06:03:48;;;;;;;30.17;17.50;;;5.00;95.30;;;;;;5053856;28;20045;-60
2022/12/24 06:06:23;;;;;;;28.23;16.92;;;4.90;95.20;;;;;;5053950;28;20098;-59
2022/12/24 06:08:52;;;;;;;28.65;15.60;;;4.90;95.20;;;;;;5025624;28;21643;-60
2022/12/24 06:11:21;;;;;;;24.98;14.60;;;4.90;95.30;;;;;;5021122;28;20061;-59
2022/12/24 06:13:49;;;;;;;24.70;16.23;;;4.90;95.30;;;;;;5030789;28;20038;-59
2022/12/24 06:16:17;;;;;;;27.10;17.42;;;5.00;95.30;;;;;;5023899;28;20033;-59
2022/12/24 06:18:44;;;;;;;27.35;16.95;;;5.00;95.30;;;;;;5022225;28;20020;-59
2022/12/24 06:21:11;;;;;;;26.98;16.40;;;5.00;95.30;;;;;;5019775;28;20526;-56
2022/12/24 06:23:42;;;;;;;25.88;17.15;;;5.00;95.30;;;;;;5036293;28;20061;-59
2022/12/24 06:26:14;;;;;;;30.45;17.98;;;5.10;95.30;;;;;;5018641;28;20025;-58
2022/12/24 06:28:42;;;;;;;28.08;16.98;;;5.10;95.20;;;;;;5019351;28;20116;-58
2022/12/24 06:31:12;;;;;;;25.90;15.40;;;5.10;95.20;;;;;;5024470;28;20111;-58
2022/12/24 06:33:40;;;;;;;29.17;17.60;;;5.00;95.20;;;;;;5021963;28;20066;-57
2022/12/24 06:36:07;;;;;;;31.83;18.50;;;5.00;95.20;;;;;;5023601;28;20026;-55
2022/12/24 06:38:36;;;;;;;34.13;19.77;;;5.10;95.20;;;;;;5026695;28;20026;-56
2022/12/24 06:41:07;;;;;;;32.25;19.45;;;5.10;95.30;;;;;;5022622;28;20053;-56
2022/12/24 06:43:34;;;;;;;28.33;19.10;;;5.10;95.30;;;;;;5021119;28;20142;-56
2022/12/24 06:46:02;;;;;;;33.00;19.20;;;5.10;95.20;;;;;;5023432;28;20053;-57
2022/12/24 06:48:31;;;;;;;35.83;20.70;;;5.10;95.20;;;;;;5022764;28;20451;-53
2022/12/24 06:51:02;;;;;;;33.78;19.13;;;5.10;95.30;;;;;;5021826;28;20502;-56
2022/12/24 06:53:30;;;;;;;35.03;19.17;;;5.20;95.30;;;;;;5029287;28;20034;-57
2022/12/24 06:56:11;;;;;;;39.20;20.83;;;5.20;95.30;;;;;;5019212;28;20073;-55
2022/12/24 06:58:39;;;;;;;31.52;18.63;;;5.20;95.30;;;;;;5023720;28;20041;-54
2022/12/24 07:01:09;;;;;;;36.00;20.08;;;5.20;95.30;;;;;;5021761;28;20052;-53
2022/12/24 07:03:36;;;;;;;;;;;5.20;95.30;;;;;;5022337;28;20038;-53
2022/12/24 07:06:03;;;;;;;30.27;16.92;;;5.20;95.30;;;;;;5021272;28;19925;-55
2022/12/24 07:08:35;;;;;;;36.50;20.60;;;5.20;95.20;;;;;;5022771;28;20057;-51
2022/12/24 07:11:02;;;;;;;37.17;21.63;;;5.20;95.30;;;;;;5028057;28;20041;-56
2022/12/24 07:13:30;;;;;;;32.60;19.23;;;5.20;95.30;;;;;;5031126;28;20033;-53
2022/12/24 07:16:02;;;;;;;32.72;19.63;;;5.20;95.20;;;;;;5016235;28;20036;-52
2022/12/24 07:18:29;;;;;;;34.78;19.50;;;5.20;95.30;;;;;;5022170;28;20056;-56
2022/12/24 07:21:00;;;;;;;37.25;20.80;;;5.20;95.30;;;;;;5024126;28;20026;-54
2022/12/24 07:23:26;;;;;;;41.53;22.42;;;5.30;95.30;;;;;;5023373;28;20510;-60
2022/12/24 07:25:52;;;;;;;37.92;20.33;;;5.30;95.40;;;;;;5015302;28;20124;-63
2022/12/24 07:28:22;;;;;;;34.53;20.08;;;5.30;95.40;;;;;;5032679;28;20566;-63
2022/12/24 07:30:49;;;;;;;35.53;18.95;;;5.30;95.40;;;;;;5031795;28;20088;-63
2022/12/24 07:33:16;;;;;;;31.98;18.42;;;5.40;95.40;;;;;;5031560;28;20026;-63
2022/12/24 07:35:42;;;;;;;36.97;21.55;;;5.40;95.40;;;;;;5023552;28;20037;-64
2022/12/24 07:38:09;;;;;;;34.45;19.65;;;5.40;95.40;;;;;;5051516;28;20067;-63
2022/12/24 07:40:39;;;;;;;35.10;20.20;;;5.40;95.40;;;;;;5026927;28;20802;-63
2022/12/24 07:43:05;;;;;;;36.92;19.48;;;5.40;95.40;;;;;;5017157;28;20038;-63
2022/12/24 07:45:34;;;;;;;39.88;20.92;;;5.40;95.40;;;;;;5029176;28;20106;-62
2022/12/24 07:48:00;;;;;;;35.83;19.67;;;5.50;95.40;;;;;;5038915;28;20033;-61
2022/12/24 07:50:27;;;;;;;34.97;20.98;;;5.50;95.40;;;;;;5048237;28;20025;-61
2022/12/24 07:52:54;;;;;;;33.25;20.33;;;5.50;95.40;;;;;;5031451;28;20026;-61
2022/12/24 07:55:20;;;;;;;32.35;19.25;;;5.50;95.40;;;;;;5032613;28;20112;-59
2022/12/24 07:57:49;;;;;;;35.72;19.83;;;5.50;95.40;;;;;;5038949;28;20182;-60
2022/12/24 08:00:15;;;;;;;32.53;17.13;;;5.60;95.40;;;;;;5034589;28;20026;-60
2022/12/24 08:02:43;;;;;;;32.47;17.33;;;5.60;95.40;;;;;;5021415;28;20124;-60
2022/12/24 08:05:10;;;;;;;26.92;15.93;;;5.60;95.50;;;;;;5019999;28;20026;-58
2022/12/24 08:07:37;;;;;;;27.20;15.73;;;5.60;95.40;;;;;;5021208;28;20080;-60
2022/12/24 08:10:04;;;;;;;26.45;15.35;;;5.60;95.40;;;;;;5014017;28;20022;-58
2022/12/24 08:12:31;;;;;;;27.58;16.08;;;5.70;95.40;;;;;;5026448;28;20040;-59
2022/12/24 08:14:58;;;;;;;30.35;16.08;;;5.70;95.40;;;;;;5019668;28;20494;-57
2022/12/24 08:17:25;;;;;;;25.38;15.70;;;5.60;95.40;;;;;;5024021;28;20104;-57
2022/12/24 08:19:52;;;;;;;29.83;16.77;;;5.70;95.50;;;;;;5036063;28;20032;-57
2022/12/24 08:22:19;;;;;;;25.10;16.02;;;5.70;95.50;;;;;;5026818;28;20040;-55
2022/12/24 08:24:45;;;;;;;20.95;13.48;;;5.70;95.50;;;;;;5012896;28;20026;-56
2022/12/24 08:27:15;;;;;;;30.08;17.38;;;5.70;95.50;;;;;;5028870;28;20056;-57
2022/12/24 08:29:46;;;;;;;27.02;15.27;;;5.80;95.50;;;;;;5027160;28;20026;-58
2022/12/24 08:32:14;;;;;;;29.70;16.90;;;5.80;95.50;;;;;;5025043;28;20026;-60
2022/12/24 08:34:43;;;;;;;26.67;14.68;;;5.90;95.50;;;;;;5036058;28;20045;-60
2022/12/24 08:37:10;;;;;;;30.70;16.77;;;5.90;95.50;;;;;;5035826;28;20335;-60
2022/12/24 08:39:37;;;;;;;24.95;15.68;;;5.90;95.50;;;;;;5035407;28;20291;-58
2022/12/24 08:42:04;;;;;;;30.55;16.20;;;5.90;95.50;;;;;;5054207;28;20036;-60
2022/12/24 08:44:31;;;;;;;27.48;14.90;;;6.00;95.50;;;;;;5055817;28;20029;-62
2022/12/24 08:46:58;;;;;;;29.38;16.30;;;6.10;95.60;;;;;;5051695;28;20482;-62
2022/12/24 08:49:24;;;;;;;24.35;13.70;;;6.20;95.60;;;;;;5034993;28;20474;-62
2022/12/24 08:51:51;;;;;;;28.40;16.55;;;6.20;95.50;;;;;;5035229;28;20030;-63
2022/12/24 08:54:18;;;;;;;26.50;14.90;;;6.20;95.50;;;;;;5034676;28;20056;-62
2022/12/24 08:56:45;;;;;;;24.52;14.02;;;6.30;95.60;;;;;;5025264;28;20025;-64
2022/12/24 08:59:12;;;;;;;33.20;16.40;;;6.40;95.70;;;;;;5024201;28;20021;-62
2022/12/24 09:01:37;;;;;;;22.52;13.88;;;6.60;95.70;;;;;;5023874;28;20075;-62
2022/12/24 09:04:04;;;;;;;26.33;14.98;;;6.70;95.60;;;;;;5022877;28;20041;-62
2022/12/24 09:06:32;;;;;;;25.17;15.30;;;6.90;95.60;;;;;;5029641;28;20037;-64
2022/12/24 09:09:01;;;;;;;30.40;15.57;;;6.90;95.60;;;;;;5027891;28;20029;-63
2022/12/24 09:11:28;;;;;;;31.53;14.90;;;7.00;95.60;;;;;;5026897;28;20025;-64
2022/12/24 09:13:57;;;;;;;25.35;13.98;;;7.10;95.70;;;;;;5022062;28;20292;-64
2022/12/24 09:16:24;;;;;;;33.85;16.08;;;7.10;95.70;;;;;;5052939;28;20063;-64
2022/12/24 09:18:51;;;;;;;32.10;15.85;;;7.20;95.70;;;;;;5028920;28;20394;-63
2022/12/24 09:21:20;;;;;;;25.38;12.30;;;7.30;95.70;;;;;;5019321;28;20100;-62
2022/12/24 09:23:47;;;;;;;31.92;13.00;;;7.40;95.80;;;;;;5034414;28;20048;-60
2022/12/24 09:26:32;;;;;;;31.25;13.48;;;7.40;95.70;;;;;;5031450;28;20040;-60
2022/12/24 09:29:02;;;;;;;37.53;13.55;;;7.50;95.80;;;;;;5021523;28;20504;-59
2022/12/24 09:31:29;;;;;;;29.70;11.65;;;7.50;95.80;;;;;;5022834;28;20076;-59
2022/12/24 09:33:56;;;;;;;43.88;15.38;;;7.50;95.70;;;;;;5037397;28;20447;-57
2022/12/24 09:36:25;;;;;;;31.10;11.68;;;7.60;95.70;;;;;;5017011;28;20121;-56
2022/12/24 09:38:52;;;;;;;32.95;10.88;;;7.70;95.80;;;;;;5024211;28;20030;-54
2022/12/24 09:41:39;;;;;;;32.40;9.73;;;7.70;95.80;;;;;;5023917;28;20471;-55
2022/12/24 09:44:48;;;;;;;35.20;11.15;;;7.90;95.90;;;;;;5020465;28;20083;-52
2022/12/24 09:47:38;;;;;;;35.97;8.90;;;8.00;95.80;;;;;;5029664;28;20025;-52
2022/12/24 09:50:23;;;;;;;49.60;11.68;;;8.10;95.90;;;;;;5022379;28;20033;-53
2022/12/24 09:52:53;;;;;;;38.30;10.07;;;8.10;95.80;;;;;;5014690;28;20026;-50
2022/12/24 09:55:48;;;;;;;34.38;10.00;;;8.20;95.80;;;;;;5019484;28;20064;-50
2022/12/24 09:58:33;;;;;;;32.17;10.57;;;8.20;95.80;;;;;;5023314;28;20740;-49
2022/12/24 10:00:59;;;;;;;34.55;9.98;;;8.20;95.80;;;;;;5020837;28;20021;-52
2022/12/24 10:03:26;;;;;;;37.22;7.70;;;8.20;95.80;;;;;;5016113;28;20192;-49
2022/12/24 10:06:15;;;;;;;31.95;8.57;;;8.20;95.80;;;;;;5025810;28;20044;-50
2022/12/24 10:09:09;;;;;;;36.00;9.57;;;8.20;95.80;;;;;;5022598;28;20082;-50
2022/12/24 10:11:59;;;;;;;37.22;10.82;;;8.30;95.80;;;;;;5024268;28;20026;-48
2022/12/24 10:15:02;;;;;;;34.78;8.85;;;8.30;95.70;;;;;;5014114;28;20022;-49
2022/12/24 10:17:46;;;;;;;48.30;10.20;;;8.30;95.70;;;;;;5014805;28;20348;-50
2022/12/24 10:20:52;;;;;;;45.17;10.70;;;8.30;95.70;;;;;;5013738;28;20034;-49
2022/12/24 10:23:41;;;;;;;34.83;10.25;;;8.30;95.70;;;;;;5013420;28;20033;-48
2022/12/24 10:26:34;;;;;;;33.08;11.68;;;8.30;95.60;;;;;;5021898;28;20043;-49
2022/12/24 10:29:19;;;;;;;31.00;8.65;;;8.30;95.70;;;;;;5030874;28;20018;-50
2022/12/24 10:32:06;;;;;;;30.40;7.80;;;8.30;95.60;;;;;;5024070;28;20036;-50
2022/12/24 10:34:45;;;;;;;25.77;8.80;;;8.30;95.60;;;;;;5025264;28;20082;-52
2022/12/24 10:37:16;;;;;;;34.65;8.48;;;8.40;95.60;;;;;;5030234;28;20763;-47
2022/12/24 10:39:43;;;;;;;33.35;8.85;;;8.40;95.60;;;;;;5021493;28;20039;-49
2022/12/24 10:42:12;;;;;;;34.47;9.52;;;8.40;95.60;;;;;;5019027;28;20049;-48
2022/12/24 10:44:39;;;;;;;45.07;11.03;;;8.50;95.60;;;;;;5032641;28;20036;-48
2022/12/24 10:47:08;;;;;;;29.60;9.00;;;8.60;95.60;;;;;;5022970;28;20359;-48
2022/12/24 10:49:46;;;;;;;25.10;8.75;;;8.60;95.60;;;;;;5027736;28;20021;-48
2022/12/24 10:52:18;;;;;;;30.75;8.85;;;8.60;95.60;;;;;;5032654;28;20112;-47
2022/12/24 10:55:18;;;;;;;42.92;9.25;;;8.60;95.60;;;;;;5032079;28;20017;-47
2022/12/24 10:57:56;;;;;;;37.38;9.05;;;8.70;95.50;;;;;;5026927;28;20017;-47
2022/12/24 11:00:24;;;;;;;34.30;10.25;;;8.70;95.60;;;;;;5031951;28;20116;-45
2022/12/24 11:03:19;;;;;;;38.05;10.05;;;8.70;95.40;;;;;;5029318;28;20131;-45
2022/12/24 11:06:09;;;;;;;40.58;9.07;;;8.70;95.50;;;;;;5025878;28;20386;-44
2022/12/24 11:08:39;;;;;;;32.33;9.77;;;8.70;95.40;;;;;;5016634;28;20041;-45
2022/12/24 11:11:19;;;;;;;;;;;8.70;95.30;;;;;;5026342;28;20021;-45
2022/12/24 11:13:50;;;;;;;36.17;8.38;;;8.60;95.30;;;;;;5026830;28;19913;-45
2022/12/24 11:16:34;;;;;;;33.97;8.43;;;8.60;95.30;;;;;;5043790;28;20048;-47
2022/12/24 11:19:05;;;;;;;30.10;8.13;;;8.60;95.20;;;;;;5052614;28;20059;-44
2022/12/24 11:21:36;;;;;;;35.53;8.23;;;8.70;95.30;;;;;;5010876;28;20025;-49
2022/12/24 11:24:29;;;;;;;36.67;8.40;;;8.70;95.20;;;;;;5015279;28;20112;-45
2022/12/24 11:27:24;;;;;;;31.80;8.05;;;8.70;95.20;;;;;;5014230;28;20092;-47
2022/12/24 11:29:50;;;;;;;37.58;8.05;;;8.60;95.20;;;;;;5020860;28;20479;-44
2022/12/24 11:32:21;;;;;;;39.67;8.63;;;8.70;95.10;;;;;;5022095;28;20048;-44
2022/12/24 11:34:48;;;;;;;33.47;8.30;;;8.70;95.10;;;;;;5022098;28;20030;-45
2022/12/24 11:37:32;;;;;;;29.10;7.22;;;8.70;95.10;;;;;;5018946;28;20116;-46
2022/12/24 11:40:01;;;;;;;26.25;7.90;;;8.70;95.10;;;;;;5047958;28;20454;-46
2022/12/24 11:42:38;;;;;;;36.35;9.88;;;8.70;95.10;;;;;;5050729;28;20104;-47
2022/12/24 11:45:23;;;;;;;30.88;8.07;;;8.80;95.10;;;;;;5041951;28;20088;-44
2022/12/24 11:47:52;;;;;;;30.50;7.55;;;8.70;95.00;;;;;;5031659;28;20079;-45
2022/12/24 11:50:34;;;;;;;36.55;7.65;;;8.80;95.10;;;;;;5029827;28;20466;-44
2022/12/24 11:53:20;;;;;;;29.67;7.82;;;8.90;95.10;;;;;;5022041;28;20030;-44
2022/12/24 11:56:00;;;;;;;31.35;7.65;;;8.90;95.10;;;;;;5023761;28;20029;-45
2022/12/24 11:58:51;;;;;;;23.67;6.18;;;8.90;95.10;;;;;;5026883;28;20037;-45
2022/12/24 12:01:34;;;;;;;27.13;7.25;;;8.90;95.10;;;;;;5033720;28;20035;-45
2022/12/24 12:04:20;;;;;;;33.55;8.60;;;8.90;95.00;;;;;;5032807;28;20050;-49
2022/12/24 12:07:04;;;;;;;40.22;7.40;;;8.90;95.00;;;;;;5036225;28;20453;-45
2022/12/24 12:10:08;;;;;;;34.95;9.50;;;8.90;95.00;;;;;;5017930;28;20034;-44
2022/12/24 12:12:44;;;;;;;27.20;7.93;;;8.90;95.10;;;;;;5035312;28;20098;-50
2022/12/24 12:15:23;;;;;;;32.88;9.32;;;8.90;95.10;;;;;;5033664;28;20053;-46
2022/12/24 12:18:00;;;;;;;21.80;7.07;;;8.90;95.10;;;;;;5034181;28;20350;-43
2022/12/24 12:20:38;;;;;;;32.15;8.00;;;8.90;95.10;;;;;;5028669;28;20026;-47
2022/12/24 12:23:23;;;;;;;30.20;7.68;;;8.90;95.10;;;;;;5031371;28;20446;-46
2022/12/24 12:26:09;;;;;;;27.48;7.68;;;8.90;95.20;;;;;;5037837;28;20520;-47
2022/12/24 12:28:46;;;;;;;26.55;8.05;;;9.00;95.20;;;;;;5026384;28;20044;-47
2022/12/24 12:31:35;;;;;;;32.55;7.25;;;9.00;95.10;;;;;;5038728;28;20037;-45
2022/12/24 12:34:23;;;;;;;26.90;7.85;;;9.10;95.10;;;;;;5034822;28;20435;-47
2022/12/24 12:37:21;;;;;;;24.17;7.45;;;9.10;95.10;;;;;;5034773;28;20072;-45
2022/12/24 12:39:48;;;;;;;36.38;8.45;;;9.10;95.10;;;;;;5026827;28;20050;-44
2022/12/24 12:42:33;;;;;;;25.98;8.07;;;9.10;95.10;;;;;;5020215;28;20040;-49
2022/12/24 12:45:05;;;;;;;38.83;9.50;;;9.10;95.10;;;;;;5027222;28;20870;-46
2022/12/24 12:48:08;;;;;;;40.97;10.40;;;9.10;95.00;;;;;;5025626;28;20040;-45
2022/12/24 12:50:39;;;;;;;45.33;10.05;;;9.10;95.10;;;;;;5022959;28;20029;-52
2022/12/24 12:53:42;;;;;;;24.00;7.90;;;9.10;95.00;;;;;;5025486;28;20068;-49
2022/12/24 12:56:27;;;;;;;32.35;8.30;;;9.20;95.10;;;;;;5022030;28;20075;-44
2022/12/24 12:59:07;;;;;;;28.38;8.75;;;9.10;95.00;;;;;;5021572;28;20108;-45
2022/12/24 13:01:53;;;;;;;30.58;8.40;;;9.10;95.00;;;;;;5024267;28;20104;-48
2022/12/24 13:04:47;;;;;;;29.88;8.82;;;9.10;95.00;;;;;;5026209;28;20058;-45
2022/12/24 13:07:22;;;;;;;35.70;9.20;;;9.20;95.10;;;;;;5022197;28;20514;-47
2022/12/24 13:10:09;;;;;;;25.70;7.93;;;9.30;95.10;;;;;;5025088;28;20030;-45
2022/12/24 13:13:06;;;;;;;37.10;8.32;;;9.30;95.10;;;;;;5026594;28;20073;-47
2022/12/24 13:15:50;;;;;;;31.70;7.70;;;9.30;95.00;;;;;;5025835;28;20367;-47
2022/12/24 13:18:35;;;;;;;28.15;8.35;;;9.20;94.90;;;;;;5026586;28;20472;-49